sensor_id;sensor_type;location;lat;lon;timestamp;pressure;altitude;pressure_sealevel;temperature;humidity
25638;BME280;13496;51.040;13.680;2022-08-03T00:00:13;99862.00;;;27.76;39.79
25638;BME280;13496;51.040;13.680;2022-08-03T00:05:16;99863.88;;;27.76;39.32
25638;BME280;13496;51.040;13.680;2022-08-03T00:10:17;99857.94;;;27.73;39.58
25638;BME280;13496;51.040;13.680;2022-08-03T00:15:19;99862.44;;;27.73;39.41
25638;BME280;13496;51.040;13.680;2022-08-03T00:20:21;99848.59;;;27.71;39.11
25638;BME280;13496;51.040;13.680;2022-08-03T00:25:23;99851.47;;;27.69;39.04
25638;BME280;13496;51.040;13.680;2022-08-03T00:30:24;99854.41;;;27.68;38.92
25638;BME280;13496;51.040;13.680;2022-08-03T00:35:27;99852.22;;;27.65;39.26
25638;BME280;13496;51.040;13.680;2022-08-03T00:40:28;99848.75;;;27.64;39.31
25638;BME280;13496;51.040;13.680;2022-08-03T00:45:36;99851.41;;;27.64;39.18
25638;BME280;13496;51.040;13.680;2022-08-03T00:50:39;99839.16;;;27.63;39.60
25638;BME280;13496;51.040;13.680;2022-08-03T00:55:43;99851.91;;;27.61;39.24
25638;BME280;13496;51.040;13.680;2022-08-03T01:00:44;99840.69;;;27.59;39.61
25638;BME280;13496;51.040;13.680;2022-08-03T01:05:57;99843.03;;;27.56;39.53
25638;BME280;13496;51.040;13.680;2022-08-03T01:16:59;99849.66;;;27.53;39.23
25638;BME280;13496;51.040;13.680;2022-08-03T01:22:24;99846.19;;;27.53;39.16
25638;BME280;13496;51.040;13.680;2022-08-03T01:32:55;99849.34;;;27.49;38.88
25638;BME280;13496;51.040;13.680;2022-08-03T01:38:03;99849.81;;;27.46;39.14
25638;BME280;13496;51.040;13.680;2022-08-03T01:43:08;99844.50;;;27.46;38.97
25638;BME280;13496;51.040;13.680;2022-08-03T01:48:11;99846.09;;;27.47;39.13
25638;BME280;13496;51.040;13.680;2022-08-03T01:53:17;99842.91;;;27.45;38.88
25638;BME280;13496;51.040;13.680;2022-08-03T01:58:20;99844.97;;;27.43;38.76
25638;BME280;13496;51.040;13.680;2022-08-03T02:03:26;99847.09;;;27.41;39.01
25638;BME280;13496;51.040;13.680;2022-08-03T02:08:30;99841.19;;;27.39;38.86
25638;BME280;13496;51.040;13.680;2022-08-03T02:13:33;99836.34;;;27.36;39.27
25638;BME280;13496;51.040;13.680;2022-08-03T02:18:36;99831.84;;;27.37;38.93
25638;BME280;13496;51.040;13.680;2022-08-03T02:23:40;99832.34;;;27.34;38.88
25638;BME280;13496;51.040;13.680;2022-08-03T02:28:44;99827.00;;;27.34;39.36
25638;BME280;13496;51.040;13.680;2022-08-03T02:33:52;99818.44;;;27.32;38.92
25638;BME280;13496;51.040;13.680;2022-08-03T02:38:58;99817.06;;;27.29;39.17
25638;BME280;13496;51.040;13.680;2022-08-03T02:44:01;99818.38;;;27.26;39.23
25638;BME280;13496;51.040;13.680;2022-08-03T02:49:05;99821.53;;;27.23;39.10
25638;BME280;13496;51.040;13.680;2022-08-03T02:54:08;99822.31;;;27.24;38.86
25638;BME280;13496;51.040;13.680;2022-08-03T02:59:11;99819.91;;;27.22;38.94
25638;BME280;13496;51.040;13.680;2022-08-03T03:04:14;99820.72;;;27.23;39.24
25638;BME280;13496;51.040;13.680;2022-08-03T03:09:17;99824.44;;;27.22;39.45
25638;BME280;13496;51.040;13.680;2022-08-03T03:14:20;99825.25;;;27.22;39.35
25638;BME280;13496;51.040;13.680;2022-08-03T03:19:22;99828.94;;;27.21;39.14
25638;BME280;13496;51.040;13.680;2022-08-03T03:24:25;99824.91;;;27.19;39.32
25638;BME280;13496;51.040;13.680;2022-08-03T03:29:28;99830.25;;;27.19;39.15
25638;BME280;13496;51.040;13.680;2022-08-03T03:34:30;99830.25;;;27.19;39.43
25638;BME280;13496;51.040;13.680;2022-08-03T03:39:32;99828.59;;;27.18;39.46
25638;BME280;13496;51.040;13.680;2022-08-03T03:44:34;99830.72;;;27.16;39.20
25638;BME280;13496;51.040;13.680;2022-08-03T03:49:35;99833.38;;;27.16;39.14
25638;BME280;13496;51.040;13.680;2022-08-03T03:54:39;99829.13;;;27.15;39.53
25638;BME280;13496;51.040;13.680;2022-08-03T03:59:42;99827.47;;;27.14;39.02
25638;BME280;13496;51.040;13.680;2022-08-03T04:04:44;99834.13;;;27.11;39.18
25638;BME280;13496;51.040;13.680;2022-08-03T04:10:09;99836.53;;;27.13;39.10
25638;BME280;13496;51.040;13.680;2022-08-03T04:15:32;99841.88;;;27.13;39.27
25638;BME280;13496;51.040;13.680;2022-08-03T04:20:36;99834.13;;;27.11;39.43
25638;BME280;13496;51.040;13.680;2022-08-03T04:25:40;99845.59;;;27.12;39.22
25638;BME280;13496;51.040;13.680;2022-08-03T04:30:46;99846.59;;;27.11;39.47
25638;BME280;13496;51.040;13.680;2022-08-03T04:35:51;99846.03;;;27.09;39.37
25638;BME280;13496;51.040;13.680;2022-08-03T04:40:56;99847.44;;;27.11;39.00
25638;BME280;13496;51.040;13.680;2022-08-03T04:45:59;99844.16;;;27.09;39.38
25638;BME280;13496;51.040;13.680;2022-08-03T04:51:01;99855.09;;;27.08;39.44
25638;BME280;13496;51.040;13.680;2022-08-03T04:56:05;99855.09;;;27.08;39.36
25638;BME280;13496;51.040;13.680;2022-08-03T05:01:07;99855.63;;;27.10;39.53
25638;BME280;13496;51.040;13.680;2022-08-03T05:06:09;99850.56;;;27.08;39.49
25638;BME280;13496;51.040;13.680;2022-08-03T05:11:10;99859.09;;;27.10;39.23
25638;BME280;13496;51.040;13.680;2022-08-03T05:16:12;99860.09;;;27.04;39.45
25638;BME280;13496;51.040;13.680;2022-08-03T05:21:14;99854.97;;;27.02;39.73
25638;BME280;13496;51.040;13.680;2022-08-03T05:26:17;99856.63;;;27.03;39.37
25638;BME280;13496;51.040;13.680;2022-08-03T05:31:18;99860.88;;;27.05;39.87
25638;BME280;13496;51.040;13.680;2022-08-03T05:36:20;99860.09;;;27.04;39.37
25638;BME280;13496;51.040;13.680;2022-08-03T05:41:22;99855.56;;;27.05;40.00
25638;BME280;13496;51.040;13.680;2022-08-03T05:46:24;99858.22;;;27.05;39.83
25638;BME280;13496;51.040;13.680;2022-08-03T05:51:25;99855.56;;;27.05;39.88
25638;BME280;13496;51.040;13.680;2022-08-03T05:56:28;99855.56;;;27.05;39.56
25638;BME280;13496;51.040;13.680;2022-08-03T06:01:29;99853.94;;;27.03;40.08
25638;BME280;13496;51.040;13.680;2022-08-03T06:06:33;99856.63;;;27.03;40.12
25638;BME280;13496;51.040;13.680;2022-08-03T06:11:35;99852.31;;;27.02;39.81
25638;BME280;13496;51.040;13.680;2022-08-03T06:16:37;99850.22;;;27.05;39.94
25638;BME280;13496;51.040;13.680;2022-08-03T06:21:39;99852.63;;;27.06;39.79
25638;BME280;13496;51.040;13.680;2022-08-03T06:26:41;99850.78;;;27.07;40.00
25638;BME280;13496;51.040;13.680;2022-08-03T06:31:43;99847.91;;;27.08;39.65
25638;BME280;13496;51.040;13.680;2022-08-03T06:36:44;99850.78;;;27.07;39.94
25638;BME280;13496;51.040;13.680;2022-08-03T06:41:48;99852.41;;;27.08;39.78
25638;BME280;13496;51.040;13.680;2022-08-03T06:46:51;99854.81;;;27.09;39.84
25638;BME280;13496;51.040;13.680;2022-08-03T06:51:53;99861.75;;;27.10;40.15
25638;BME280;13496;51.040;13.680;2022-08-03T06:56:55;99860.16;;;27.09;40.00
25638;BME280;13496;51.040;13.680;2022-08-03T07:01:57;99858.28;;;27.10;39.72
25638;BME280;13496;51.040;13.680;2022-08-03T07:06:58;99858.91;;;27.12;40.04
25638;BME280;13496;51.040;13.680;2022-08-03T07:12:00;99870.09;;;27.14;39.96
25638;BME280;13496;51.040;13.680;2022-08-03T07:17:02;99866.63;;;27.13;40.03
25638;BME280;13496;51.040;13.680;2022-08-03T07:22:04;99864.78;;;27.14;40.00
25638;BME280;13496;51.040;13.680;2022-08-03T07:27:07;99865.69;;;27.19;39.99
25638;BME280;13496;51.040;13.680;2022-08-03T07:32:09;99866.75;;;27.18;40.07
25638;BME280;13496;51.040;13.680;2022-08-03T07:37:11;99863.03;;;27.19;40.11
25638;BME280;13496;51.040;13.680;2022-08-03T07:42:13;99861.16;;;27.20;40.08
25638;BME280;13496;51.040;13.680;2022-08-03T07:47:22;99850.75;;;27.18;39.88
25638;BME280;13496;51.040;13.680;2022-08-03T07:52:24;99857.44;;;27.21;39.93
25638;BME280;13496;51.040;13.680;2022-08-03T07:57:45;99854.28;;;27.24;39.84
25638;BME280;13496;51.040;13.680;2022-08-03T08:02:46;99857.53;;;27.26;39.78
25638;BME280;13496;51.040;13.680;2022-08-03T08:07:48;99852.22;;;27.26;40.17
25638;BME280;13496;51.040;13.680;2022-08-03T08:12:50;99844.28;;;27.31;39.76
25638;BME280;13496;51.040;13.680;2022-08-03T08:17:58;99847.53;;;27.33;39.77
25638;BME280;13496;51.040;13.680;2022-08-03T08:23:03;99838.47;;;27.34;40.03
25638;BME280;13496;51.040;13.680;2022-08-03T08:28:05;99838.47;;;27.34;39.82
25638;BME280;13496;51.040;13.680;2022-08-03T08:33:06;99839.28;;;27.35;39.86
25638;BME280;13496;51.040;13.680;2022-08-03T08:38:08;99836.13;;;27.38;39.65
25638;BME280;13496;51.040;13.680;2022-08-03T08:43:10;99830.00;;;27.37;40.03
25638;BME280;13496;51.040;13.680;2022-08-03T08:48:12;99842.31;;;27.43;39.70
25638;BME280;13496;51.040;13.680;2022-08-03T08:53:14;99833.28;;;27.44;39.86
25638;BME280;13496;51.040;13.680;2022-08-03T08:58:18;99833.34;;;27.49;40.08
25638;BME280;13496;51.040;13.680;2022-08-03T09:03:22;99826.97;;;27.50;39.73
25638;BME280;13496;51.040;13.680;2022-08-03T09:08:23;99825.63;;;27.48;39.74
25638;BME280;13496;51.040;13.680;2022-08-03T09:13:25;99832.88;;;27.53;39.65
25638;BME280;13496;51.040;13.680;2022-08-03T09:18:28;99832.59;;;27.54;39.93
25638;BME280;13496;51.040;13.680;2022-08-03T09:23:48;99825.41;;;27.55;39.90
25638;BME280;13496;51.040;13.680;2022-08-03T09:28:55;99820.91;;;27.55;39.42
25638;BME280;13496;51.040;13.680;2022-08-03T09:34:00;99816.13;;;27.57;39.50
25638;BME280;13496;51.040;13.680;2022-08-03T09:39:14;99818.53;;;27.59;39.18
25638;BME280;13496;51.040;13.680;2022-08-03T09:44:16;99816.94;;;27.58;39.58
25638;BME280;13496;51.040;13.680;2022-08-03T09:49:17;99820.50;;;27.63;39.58
25638;BME280;13496;51.040;13.680;2022-08-03T09:54:30;99810.63;;;27.64;39.88
25638;BME280;13496;51.040;13.680;2022-08-03T09:59:32;99808.50;;;27.66;39.65
25638;BME280;13496;51.040;13.680;2022-08-03T10:04:45;99798.94;;;27.70;40.03
25638;BME280;13496;51.040;13.680;2022-08-03T10:09:58;99805.44;;;27.74;40.04
25638;BME280;13496;51.040;13.680;2022-08-03T10:15:00;99801.25;;;27.78;39.64
25638;BME280;13496;51.040;13.680;2022-08-03T10:20:04;99790.31;;;27.80;39.62
25638;BME280;13496;51.040;13.680;2022-08-03T10:25:09;99785.28;;;27.83;39.99
25638;BME280;13496;51.040;13.680;2022-08-03T10:30:12;99787.47;;;27.86;39.63
25638;BME280;13496;51.040;13.680;2022-08-03T10:35:16;99789.34;;;27.86;40.07
25638;BME280;13496;51.040;13.680;2022-08-03T10:40:21;99785.34;;;27.88;39.65
25638;BME280;13496;51.040;13.680;2022-08-03T10:45:25;99789.16;;;27.92;39.31
25638;BME280;13496;51.040;13.680;2022-08-03T10:50:27;99787.81;;;27.95;39.61
25638;BME280;13496;51.040;13.680;2022-08-03T10:55:36;99785.97;;;27.95;39.27
25638;BME280;13496;51.040;13.680;2022-08-03T11:00:56;99780.88;;;27.94;38.61
25638;BME280;13496;51.040;13.680;2022-08-03T11:06:27;99775.88;;;27.97;39.94
25638;BME280;13496;51.040;13.680;2022-08-03T11:11:29;99766.88;;;28.04;39.83
25638;BME280;13496;51.040;13.680;2022-08-03T11:16:33;99763.94;;;28.05;39.94
25638;BME280;13496;51.040;13.680;2022-08-03T11:27:16;99750.91;;;28.09;38.56
25638;BME280;13496;51.040;13.680;2022-08-03T11:42:55;99756.28;;;28.14;38.86
25638;BME280;13496;51.040;13.680;2022-08-03T11:47:59;99743.50;;;28.16;39.07
25638;BME280;13496;51.040;13.680;2022-08-03T11:53:04;99746.72;;;28.18;38.93
25638;BME280;13496;51.040;13.680;2022-08-03T11:58:07;99737.91;;;28.17;39.73
25638;BME280;13496;51.040;13.680;2022-08-03T12:03:15;99728.59;;;28.20;39.41
25638;BME280;13496;51.040;13.680;2022-08-03T12:18:42;99730.88;;;28.33;39.85
25638;BME280;13496;51.040;13.680;2022-08-03T12:23:44;99724.72;;;28.33;39.69
25638;BME280;13496;51.040;13.680;2022-08-03T12:28:49;99720.78;;;28.40;39.52
25638;BME280;13496;51.040;13.680;2022-08-03T12:34:01;99716.53;;;28.39;39.59
25638;BME280;13496;51.040;13.680;2022-08-03T12:39:06;99712.28;;;28.43;40.10
25638;BME280;13496;51.040;13.680;2022-08-03T12:44:08;99707.00;;;28.49;39.77
25638;BME280;13496;51.040;13.680;2022-08-03T12:49:12;99693.69;;;28.54;40.01
25638;BME280;13496;51.040;13.680;2022-08-03T12:54:20;99695.84;;;28.57;40.28
25638;BME280;13496;51.040;13.680;2022-08-03T12:59:24;99696.94;;;28.61;39.95
25638;BME280;13496;51.040;13.680;2022-08-03T13:04:34;99687.38;;;28.65;40.09
25638;BME280;13496;51.040;13.680;2022-08-03T13:14:47;99690.34;;;28.74;40.59
25638;BME280;13496;51.040;13.680;2022-08-03T13:19:50;99688.53;;;28.79;40.57
25638;BME280;13496;51.040;13.680;2022-08-03T13:24:53;99691.22;;;28.84;40.35
25638;BME280;13496;51.040;13.680;2022-08-03T13:29:58;99687.81;;;28.89;40.39
25638;BME280;13496;51.040;13.680;2022-08-03T13:35:01;99680.88;;;28.93;40.36
25638;BME280;13496;51.040;13.680;2022-08-03T13:40:05;99677.69;;;28.96;40.75
25638;BME280;13496;51.040;13.680;2022-08-03T13:45:08;99676.38;;;28.99;40.99
25638;BME280;13496;51.040;13.680;2022-08-03T13:50:11;99674.56;;;29.04;40.66
25638;BME280;13496;51.040;13.680;2022-08-03T13:55:13;99658.81;;;29.08;40.66
25638;BME280;13496;51.040;13.680;2022-08-03T14:00:16;99659.91;;;29.12;40.76
25638;BME280;13496;51.040;13.680;2022-08-03T14:05:18;99657.22;;;29.17;40.79
25638;BME280;13496;51.040;13.680;2022-08-03T14:10:20;99654.03;;;29.20;40.77
25638;BME280;13496;51.040;13.680;2022-08-03T14:15:21;99647.09;;;29.24;41.13
25638;BME280;13496;51.040;13.680;2022-08-03T14:20:23;99647.13;;;29.29;41.13
25638;BME280;13496;51.040;13.680;2022-08-03T14:25:25;99654.63;;;29.32;41.12
25638;BME280;13496;51.040;13.680;2022-08-03T14:30:27;99645.00;;;29.36;41.14
25638;BME280;13496;51.040;13.680;2022-08-03T14:35:29;99643.16;;;29.42;41.20
25638;BME280;13496;51.040;13.680;2022-08-03T14:40:30;99641.56;;;29.46;40.70
25638;BME280;13496;51.040;13.680;2022-08-03T14:45:32;99633.81;;;29.50;41.13
25638;BME280;13496;51.040;13.680;2022-08-03T14:50:34;99640.25;;;29.54;40.80
25638;BME280;13496;51.040;13.680;2022-08-03T14:55:36;99631.47;;;29.58;40.76
25638;BME280;13496;51.040;13.680;2022-08-03T15:00:38;99621.84;;;29.62;41.29
25638;BME280;13496;51.040;13.680;2022-08-03T15:05:39;99620.00;;;29.68;41.10
25638;BME280;13496;51.040;13.680;2022-08-03T15:10:41;99616.53;;;29.73;41.27
25638;BME280;13496;51.040;13.680;2022-08-03T15:15:43;99610.66;;;29.76;40.93
25638;BME280;13496;51.040;13.680;2022-08-03T15:20:45;99612.25;;;29.82;40.78
25638;BME280;13496;51.040;13.680;2022-08-03T15:25:49;99608.78;;;29.86;40.98
25638;BME280;13496;51.040;13.680;2022-08-03T15:30:51;99608.50;;;29.88;41.10
25638;BME280;13496;51.040;13.680;2022-08-03T15:35:53;99600.75;;;29.92;40.77
25638;BME280;13496;51.040;13.680;2022-08-03T15:40:55;99593.78;;;29.96;41.16
25638;BME280;13496;51.040;13.680;2022-08-03T15:45:56;99603.44;;;30.02;40.95
25638;BME280;13496;51.040;13.680;2022-08-03T15:50:59;99593.00;;;30.05;40.81
25638;BME280;13496;51.040;13.680;2022-08-03T15:56:01;99605.56;;;30.10;40.99
25638;BME280;13496;51.040;13.680;2022-08-03T16:01:05;99594.31;;;30.13;40.90
25638;BME280;13496;51.040;13.680;2022-08-03T16:06:06;99592.75;;;30.17;41.21
25638;BME280;13496;51.040;13.680;2022-08-03T16:11:09;99588.22;;;30.23;40.89
25638;BME280;13496;51.040;13.680;2022-08-03T16:16:11;99576.13;;;30.25;41.05
25638;BME280;13496;51.040;13.680;2022-08-03T16:21:13;99581.50;;;30.30;40.88
25638;BME280;13496;51.040;13.680;2022-08-03T16:26:15;99581.47;;;30.35;41.09
25638;BME280;13496;51.040;13.680;2022-08-03T16:31:16;99579.34;;;30.37;40.98
25638;BME280;13496;51.040;13.680;2022-08-03T16:36:18;99578.78;;;30.41;40.79
25638;BME280;13496;51.040;13.680;2022-08-03T16:41:20;99582.00;;;30.43;41.00
25638;BME280;13496;51.040;13.680;2022-08-03T16:46:22;99577.19;;;30.45;41.04
25638;BME280;13496;51.040;13.680;2022-08-03T16:51:24;99586.28;;;30.49;40.82
25638;BME280;13496;51.040;13.680;2022-08-03T16:56:25;99584.41;;;30.49;41.19
25638;BME280;13496;51.040;13.680;2022-08-03T17:01:27;99587.59;;;30.51;40.92
25638;BME280;13496;51.040;13.680;2022-08-03T17:06:30;99585.47;;;30.53;40.96
25638;BME280;13496;51.040;13.680;2022-08-03T17:11:32;99585.72;;;30.57;41.04
25638;BME280;13496;51.040;13.680;2022-08-03T17:16:34;99591.34;;;30.60;40.86
25638;BME280;13496;51.040;13.680;2022-08-03T17:21:45;99590.25;;;30.61;40.86
25638;BME280;13496;51.040;13.680;2022-08-03T17:26:49;99595.34;;;30.63;41.03
25638;BME280;13496;51.040;13.680;2022-08-03T17:31:51;99591.06;;;30.62;40.83
25638;BME280;13496;51.040;13.680;2022-08-03T17:36:53;99599.63;;;30.64;41.02
25638;BME280;13496;51.040;13.680;2022-08-03T17:41:56;99603.09;;;30.65;41.04
25638;BME280;13496;51.040;13.680;2022-08-03T17:47:01;99606.59;;;30.65;40.89
25638;BME280;13496;51.040;13.680;2022-08-03T17:52:05;99608.19;;;30.66;41.01
25638;BME280;13496;51.040;13.680;2022-08-03T17:57:10;99609.25;;;30.65;40.84
25638;BME280;13496;51.040;13.680;2022-08-03T18:07:55;99617.84;;;30.62;41.19
25638;BME280;13496;51.040;13.680;2022-08-03T18:13:03;99615.69;;;30.64;41.21
25638;BME280;13496;51.040;13.680;2022-08-03T18:18:10;99627.50;;;30.63;40.82
25638;BME280;13496;51.040;13.680;2022-08-03T18:23:14;99625.06;;;30.61;41.13
25638;BME280;13496;51.040;13.680;2022-08-03T18:28:17;99624.28;;;30.61;41.16
25638;BME280;13496;51.040;13.680;2022-08-03T18:33:19;99628.84;;;30.60;40.91
25638;BME280;13496;51.040;13.680;2022-08-03T18:38:21;99630.72;;;30.60;40.67
25638;BME280;13496;51.040;13.680;2022-08-03T18:43:23;99635.53;;;30.58;41.06
25638;BME280;13496;51.040;13.680;2022-08-03T18:48:35;99631.25;;;30.57;41.10
25638;BME280;13496;51.040;13.680;2022-08-03T18:58:52;99655.63;;;30.50;40.93
25638;BME280;13496;51.040;13.680;2022-08-03T19:04:10;99659.09;;;30.51;40.99
25638;BME280;13496;51.040;13.680;2022-08-03T19:09:40;99651.34;;;30.49;40.92
25638;BME280;13496;51.040;13.680;2022-08-03T19:14:52;99649.75;;;30.48;41.03
25638;BME280;13496;51.040;13.680;2022-08-03T19:19:56;99651.09;;;30.46;40.82
25638;BME280;13496;51.040;13.680;2022-08-03T19:24:59;99647.88;;;30.44;40.85
25638;BME280;13496;51.040;13.680;2022-08-03T19:30:05;99648.94;;;30.43;40.74
25638;BME280;13496;51.040;13.680;2022-08-03T19:35:07;99648.41;;;30.41;40.94
25638;BME280;13496;51.040;13.680;2022-08-03T19:40:09;99652.44;;;30.38;40.49
25638;BME280;13496;51.040;13.680;2022-08-03T19:45:15;99648.41;;;30.35;40.36
25638;BME280;13496;51.040;13.680;2022-08-03T19:50:21;99660.19;;;30.34;40.51
25638;BME280;13496;51.040;13.680;2022-08-03T19:55:27;99649.22;;;30.36;40.71
25638;BME280;13496;51.040;13.680;2022-08-03T20:00:29;99655.09;;;30.33;40.29
25638;BME280;13496;51.040;13.680;2022-08-03T20:05:32;99659.13;;;30.30;40.42
25638;BME280;13496;51.040;13.680;2022-08-03T20:10:34;99657.50;;;30.29;40.10
25638;BME280;13496;51.040;13.680;2022-08-03T20:15:35;99654.31;;;30.27;40.24
25638;BME280;13496;51.040;13.680;2022-08-03T20:20:37;99659.13;;;30.25;40.20
25638;BME280;13496;51.040;13.680;2022-08-03T20:25:44;99653.25;;;30.23;40.28
25638;BME280;13496;51.040;13.680;2022-08-03T20:30:46;99656.16;;;30.22;40.63
25638;BME280;13496;51.040;13.680;2022-08-03T20:35:48;99660.72;;;30.21;40.35
25638;BME280;13496;51.040;13.680;2022-08-03T20:40:49;99660.72;;;30.21;40.28
25638;BME280;13496;51.040;13.680;2022-08-03T20:45:51;99662.88;;;30.19;40.48
25638;BME280;13496;51.040;13.680;2022-08-03T20:50:53;99654.31;;;30.17;40.47
25638;BME280;13496;51.040;13.680;2022-08-03T20:55:59;99666.59;;;30.18;40.39
25638;BME280;13496;51.040;13.680;2022-08-03T21:01:01;99658.84;;;30.17;40.23
25638;BME280;13496;51.040;13.680;2022-08-03T21:06:04;99667.13;;;30.15;40.28
25638;BME280;13496;51.040;13.680;2022-08-03T21:11:16;99667.38;;;30.13;40.45
25638;BME280;13496;51.040;13.680;2022-08-03T21:16:18;99663.91;;;30.13;40.22
25638;BME280;13496;51.040;13.680;2022-08-03T21:21:22;99665.00;;;30.12;40.22
25638;BME280;13496;51.040;13.680;2022-08-03T21:26:25;99673.28;;;30.10;40.29
25638;BME280;13496;51.040;13.680;2022-08-03T21:31:27;99672.75;;;30.08;40.09
25638;BME280;13496;51.040;13.680;2022-08-03T21:36:31;99676.50;;;30.07;40.31
25638;BME280;13496;51.040;13.680;2022-08-03T21:41:36;99667.66;;;30.07;40.05
25638;BME280;13496;51.040;13.680;2022-08-03T21:46:39;99664.44;;;30.05;40.19
25638;BME280;13496;51.040;13.680;2022-08-03T21:51:41;99670.88;;;30.04;40.22
25638;BME280;13496;51.040;13.680;2022-08-03T21:56:46;99665.53;;;30.04;39.99
25638;BME280;13496;51.040;13.680;2022-08-03T22:01:50;99667.66;;;30.02;39.97
25638;BME280;13496;51.040;13.680;2022-08-03T22:06:53;99677.56;;;30.01;39.70
25638;BME280;13496;51.040;13.680;2022-08-03T22:11:55;99670.84;;;29.99;39.82
25638;BME280;13496;51.040;13.680;2022-08-03T22:16:56;99671.13;;;29.97;40.06
25638;BME280;13496;51.040;13.680;2022-08-03T22:22:00;99667.91;;;29.95;40.02
25638;BME280;13496;51.040;13.680;2022-08-03T22:27:04;99667.09;;;29.95;39.70
25638;BME280;13496;51.040;13.680;2022-08-03T22:32:26;99672.75;;;29.93;40.06
25638;BME280;13496;51.040;13.680;2022-08-03T22:37:29;99667.63;;;29.92;39.70
25638;BME280;13496;51.040;13.680;2022-08-03T22:42:32;99672.19;;;29.91;40.16
25638;BME280;13496;51.040;13.680;2022-08-03T22:47:38;99671.38;;;29.90;39.55
25638;BME280;13496;51.040;13.680;2022-08-03T22:52:42;99675.66;;;29.86;39.83
25638;BME280;13496;51.040;13.680;2022-08-03T22:57:44;99679.41;;;29.85;39.83
25638;BME280;13496;51.040;13.680;2022-08-03T23:02:47;99677.00;;;29.84;39.63
25638;BME280;13496;51.040;13.680;2022-08-03T23:07:50;99672.72;;;29.83;39.49
25638;BME280;13496;51.040;13.680;2022-08-03T23:12:54;99666.00;;;29.80;39.79
25638;BME280;13496;51.040;13.680;2022-08-03T23:17:57;99666.00;;;29.80;39.64
25638;BME280;13496;51.040;13.680;2022-08-03T23:23:01;99675.38;;;29.78;39.23
25638;BME280;13496;51.040;13.680;2022-08-03T23:28:07;99671.09;;;29.77;39.27
25638;BME280;13496;51.040;13.680;2022-08-03T23:33:12;99674.56;;;29.77;39.38
25638;BME280;13496;51.040;13.680;2022-08-03T23:38:15;99664.41;;;29.74;39.24
25638;BME280;13496;51.040;13.680;2022-08-03T23:43:18;99671.09;;;29.72;39.43
25638;BME280;13496;51.040;13.680;2022-08-03T23:48:20;99664.38;;;29.69;39.11
25638;BME280;13496;51.040;13.680;2022-08-03T23:53:29;99669.72;;;29.69;39.38
25638;BME280;13496;51.040;13.680;2022-08-03T23:58:52;99665.19;;;29.70;39.26
